Latest Coastal Weather Observations for Bundaberg

IDQ60701

Issued at 6:42 am EST Tuesday 27 September 2016 (issued every 10 minutes, with the page automatically refreshed every 10 minutes)

About coastal observations | Map of coastal stations | Coastal observations for QLD | Marine services | Other Formats
Station Details ID: 039128 Name: BUNDABERG AERO Lat: -24.91 Lon: 152.32 Height: 30.82 m
Data from the previous 72 hours. | See also: Recent months at Bundaberg
Date/Time
EST
Temp
°C
Wind Pressure Rain since
9am
mm
Weather Cloud Vis
km
Sea
Height
m
Swell
Dir  Spd
kts
Gust
kts
hPa Trend Height
m
Period
s
Dir
27/06:30am 16.0 WNW 5 6 1014.7 - 0.0 - - 10 - - - -
27/06:00am 15.4 W 5 6 1014.2 - 0.0 - Cloudy 10 - - - -
27/05:30am 16.1 WSW 5 7 1013.8 - 0.0 - - 10 - - - -
27/05:00am 15.6 WSW 5 6 1013.8 - 0.0 - - 10 - - - -
27/04:30am 15.2 WSW 5 6 1013.3 - 0.0 - - 10 - - - -
27/04:00am 16.0 CALM 0 0 1013.0 - 0.0 - - 10 - - - -
27/03:30am 16.8 WSW 5 7 1012.6 - 0.0 - - 10 - - - -
27/03:00am 16.6 WSW 6 8 1012.4 - 0.0 - Mostly cloudy 10 - - - -
27/02:30am 16.5 WSW 7 9 1012.0 - 0.0 - - 10 - - - -
27/02:00am 16.4 WSW 7 9 1012.3 - 0.0 - - 10 - - - -
27/01:30am 16.0 WSW 7 9 1012.5 - 0.0 - - 10 - - - -
27/01:00am 16.1 W 4 6 1012.5 - 0.0 - - 10 - - - -
27/12:30am 16.3 W 5 6 1013.2 - 0.0 - - 10 - - - -
27/12:00am 16.2 WSW 5 7 1013.6 - 0.0 - - 10 - - - -
 
Date/Time
EST
Temp
°C
Wind Pressure Rain since
9am
mm
Weather Cloud Vis
km
Sea
Height
m
Swell
Dir  Spd
kts
Gust
kts
hPa Trend Height
m
Period
s
Dir
26/11:30pm 15.9 WSW 2 4 1013.5 - 0.0 - - 10 - - - -
26/11:00pm 17.0 W 5 5 1013.7 - 0.0 - - 10 - - - -
26/10:30pm 17.2 NW 6 7 1013.6 - 0.0 - - 10 - - - -
26/10:00pm 17.6 NW 6 7 1013.7 - 0.0 - - 10 - - - -
26/09:30pm 18.0 NW 5 6 1013.7 - 0.0 - - 10 - - - -
26/09:00pm 17.6 NNW 6 7 1013.2 - 0.0 - Mostly clear 10 - - - -
26/08:30pm 18.1 NNW 6 7 1013.0 - 0.0 - - 10 - - - -
26/08:00pm 17.7 NNW 6 7 1012.6 - 0.0 - - 10 - - - -
26/07:30pm 19.3 N 7 8 1012.3 - 0.0 - - 10 - - - -
26/07:00pm 20.4 N 7 9 1012.2 - 0.0 - - 10 - - - -
26/06:30pm 20.8 N 7 9 1011.9 - 0.0 - - 10 - - - -
26/06:00pm 21.5 N 8 10 1011.5 - 0.0 - - 10 - - - -
26/05:30pm 22.1 NNE 7 9 1011.1 - 0.0 - - 10 - - - -
26/05:00pm 23.2 NNE 8 10 1010.7 - 0.0 - - 10 - - - -
26/04:30pm 23.6 NNE 10 13 1010.2 - 0.0 - - 10 - - - -
26/04:00pm 24.3 NNE 10 13 1010.2 - 0.0 - Partly cloudy 10 - - - -
26/03:30pm 24.9 NNE 9 13 1010.1 - 0.0 - - 10 - - - -
26/03:00pm 25.7 NNE 9 12 1010.0 - 0.0 - - 10 - - - -
26/02:30pm 26.1 NNE 7 12 1010.0 - 0.0 - - 10 - - - -
26/02:00pm 27.4 NW 6 9 1010.3 - 0.0 - - 10 - - - -
26/01:30pm 26.7 WSW 7 13 1010.8 - 0.0 - - 10 - - - -
26/01:00pm 26.3 WSW 4 8 1011.3 - 0.0 - - 10 - - - -
26/12:30pm 26.0 S 5 10 1011.7 - 0.0 - - 10 - - - -
26/12:00pm 25.3 S 7 11 1012.3 - 0.0 - - 10 - - - -
26/11:30am 24.8 SSW 8 11 1012.8 - 0.0 - - 10 - - - -
26/11:00am 24.9 S 6 12 1013.4 - 0.0 - - 10 - - - -
26/10:30am 23.4 SW 6 10 1013.9 - 0.0 - - 10 - - - -
26/10:00am 22.8 SSW 9 13 1014.4 - 0.0 - - 10 - - - -
26/09:30am 22.2 S 10 14 1014.5 - 0.0 - - 10 - - - -
26/09:00am 22.3 S 10 15 1014.5 - 14.6 - - 10 - - - -
26/08:30am 21.3 S 10 17 1014.6 - 14.6 - - 10 - - - -
26/08:00am 20.4 S 8 11 1014.3 - 14.6 - - 10 - - - -
26/07:30am 18.7 SSW 6 9 1014.1 - 14.6 - - 10 - - - -
26/07:00am 17.6 SW 5 7 1013.8 - 14.6 - - 10 - - - -
26/06:30am 16.2 SW 6 8 1013.4 - 14.6 - - 10 - - - -
26/06:00am 14.9 SW 5 7 1013.0 - 14.6 - - 10 - - - -
26/05:30am 14.4 CALM 0 3 1012.7 - 14.6 - - 10 - - - -
26/05:00am 15.3 SW 4 5 1012.0 - 14.6 - - 10 - - - -
26/04:30am 15.5 SW 5 6 1011.7 - 14.6 - - 10 - - - -
26/04:00am 16.2 SW 5 7 1011.4 - 14.6 - - 10 - - - -
26/03:30am 15.0 SW 5 6 1011.1 - 14.6 - - 10 - - - -
26/03:00am 14.9 SSW 4 5 1011.0 - 14.6 - - 10 - - - -
26/02:30am 15.2 SSW 3 5 1011.1 - 14.6 - - 10 - - - -
26/02:00am 15.7 W 3 4 1011.1 - 14.6 - - 10 - - - -
26/01:30am 16.9 WSW 3 4 1011.0 - 14.6 - - 10 - - - -
26/01:00am 18.0 W 3 4 1011.1 - 14.6 - - 10 - - - -
26/12:30am 19.5 SW 6 9 1011.2 - 14.6 - - 10 - - - -
26/12:00am 19.8 SW 6 9 1011.1 - 14.6 - - 10 - - - -
 
Date/Time
EST
Temp
°C
Wind Pressure Rain since
9am
mm
Weather Cloud Vis
km
Sea
Height
m
Swell
Dir  Spd
kts
Gust
kts
hPa Trend Height
m
Period
s
Dir
25/11:30pm 20.6 SSW 7 11 1011.2 - 14.6 - - 10 - - - -
25/11:00pm 20.2 S 6 8 1011.2 - 14.6 - - 10 - - - -
25/10:30pm 21.6 SSW 7 11 1011.2 - 14.6 - - 10 - - - -
25/10:00pm 21.3 SW 4 5 1011.2 - 14.6 - - 10 - - - -
25/09:30pm 22.3 SW 6 9 1010.8 - 14.6 - - 10 - - - -
25/09:00pm 21.2 WSW 5 8 1010.2 - 14.6 - - 10 - - - -
25/08:30pm 21.0 NNW 4 5 1009.7 - 14.6 - - 7 - - - -
25/08:00pm 21.9 N 2 4 1009.2 - 14.6 - - 10 - - - -
25/07:30pm 22.0 NNW 5 6 1008.7 - 14.6 - - 10 - - - -
25/07:00pm 22.8 N 4 6 1008.2 - 14.6 - - 10 - - - -
25/06:30pm 23.1 NNE 5 7 1007.7 - 14.6 - Partly cloudy 10 - - - -
25/06:00pm 23.4 N 7 9 1007.0 - 14.6 - Partly cloudy 10 - - - -
25/05:30pm 24.2 N 9 11 1006.4 - 14.6 - Partly cloudy 10 - - - -
25/05:00pm 24.5 N 10 13 1005.9 - 14.6 - - 10 - - - -
25/04:30pm 24.7 N 11 15 1005.6 - 14.6 - - 10 - - - -
25/04:00pm 26.0 N 13 17 1005.5 - 14.6 - Partly cloudy 10 - - - -
25/03:30pm 26.7 N 11 16 1005.2 - 14.6 - Partly cloudy 10 - - - -
25/03:00pm 24.7 N 10 15 1005.3 - 14.6 Showers Partly cloudy 10 - - - -
25/02:30pm 25.2 N 11 14 1005.5 - 14.4 - - 10 - - - -
25/02:00pm 26.1 N 13 20 1005.5 - 14.4 - Partly cloudy 10 - - - -
25/01:30pm 26.0 NNE 12 15 1006.2 - 14.4 - Partly cloudy 10 - - - -
25/01:09pm 23.3 SE 4 6 1006.5 - 14.4 - Partly cloudy 10 - - - -
25/01:00pm 22.0 S 5 7 1007.0 - 14.4 - Partly cloudy 7 - - - -
25/12:48pm 22.7 E 6 11 1006.8 - 13.6 - Cloudy 3 - - - -
25/12:35pm 22.4 S 10 14 1006.9 - 9.6 - Partly cloudy 3 - - - -
25/12:30pm 22.0 S 8 14 1007.1 - 8.6 - Partly cloudy 3 - - - -
25/12:17pm 24.5 NNE 9 16 1007.4 - 2.2 - Partly cloudy 5 - - - -
25/12:00pm 26.8 N 10 14 1007.4 - 0.0 - Cloudy 10 - - - -
25/11:30am 27.2 N 10 16 1008.0 - 0.0 - Partly cloudy 10 - - - -
25/11:00am 27.8 NNW 6 12 1008.5 - 0.0 - Partly cloudy 10 - - - -
25/10:30am 27.8 NW 7 11 1009.1 - 0.0 - Partly cloudy 10 - - - -
25/10:00am 26.7 N 5 11 1009.3 - 0.0 - Partly cloudy 10 - - - -
25/09:30am 25.6 NW 6 8 1010.0 - 0.0 - Partly cloudy 9 - - - -
25/09:00am 24.8 WNW 6 8 1010.5 - 0.0 - Mostly cloudy 8 - - - -
25/08:54am 24.2 W 6 8 1010.6 - 0.0 - Partly cloudy 8 - - - -
25/08:30am 22.6 WSW 5 8 1010.8 - 0.0 - Partly cloudy 10 - - - -
25/08:08am 22.2 SW 6 8 1010.8 - 0.0 - Partly cloudy 10 - - - -
25/08:00am 22.2 WSW 6 9 1010.8 - 0.0 - Partly cloudy 10 - - - -
25/07:30am 21.8 W 6 8 1010.5 - 0.0 - Partly cloudy 10 - - - -
25/07:00am 21.4 W 4 6 1010.2 - 0.0 - Partly cloudy 10 - - - -
25/06:30am 21.1 NW 5 6 1009.7 - 0.0 - - 9 - - - -
25/06:00am 19.7 NNW 5 6 1009.2 - 0.0 - - 9 - - - -
25/05:55am 20.0 NNW 5 5 1009.1 - 0.0 - - 10 - - - -
25/05:30am 20.1 NW 4 5 1009.1 - 0.0 - - 5 - - - -
25/05:25am 20.1 NW 4 5 1009.0 - 0.0 - - 5 - - - -
25/05:00am 20.1 NW 5 5 1008.8 - 0.0 - Partly cloudy 10 - - - -
25/04:30am 21.1 NW 6 7 1008.6 - 0.0 - Partly cloudy 10 - - - -
25/04:17am 21.3 NW 6 8 1008.6 - 0.0 - Partly cloudy 10 - - - -
25/04:00am 21.7 NNW 8 10 1008.3 - 0.0 - Partly cloudy 10 - - - -
25/03:30am 22.3 NNW 9 12 1008.1 - 0.0 - Partly cloudy 10 - - - -
25/03:00am 22.4 NNW 10 13 1008.2 - 0.0 - Cloudy 10 - - - -
25/02:46am 22.5 N 10 13 1008.4 - 0.0 - Partly cloudy 10 - - - -
25/02:42am 22.5 N 11 13 1008.4 - 0.0 - Partly cloudy 10 - - - -
25/02:30am 22.4 N 9 12 1008.5 - 0.0 - Partly cloudy 10 - - - -
25/02:00am 22.2 NNW 13 17 1008.7 - 0.0 - Partly cloudy 10 - - - -
25/01:30am 22.1 N 9 13 1008.9 - 0.0 - Partly cloudy 10 - - - -
25/01:23am 22.1 N 9 13 1008.9 - 0.0 - Partly cloudy 10 - - - -
25/01:00am 22.0 N 8 9 1009.2 - 0.0 - Partly cloudy 10 - - - -
25/12:30am 21.5 NNW 9 12 1009.5 - 0.0 - Partly cloudy 10 - - - -
25/12:11am 21.8 N 10 12 1009.6 - 0.0 - Partly cloudy 10 - - - -
25/12:00am 21.5 N 8 10 1009.8 - 0.0 - Cloudy 10 - - - -
 
Date/Time
EST
Temp
°C
Wind Pressure Rain since
9am
mm
Weather Cloud Vis
km
Sea
Height
m
Swell
Dir  Spd
kts
Gust
kts
hPa Trend Height
m
Period
s
Dir
24/11:30pm 21.6 WNW 2 4 1010.3 - 0.0 - Partly cloudy 10 - - - -
24/11:00pm 21.7 N 1 4 1010.4 - 0.0 - Partly cloudy 10 - - - -
24/10:59pm 21.7 N 1 4 1010.4 - 0.0 - Partly cloudy 10 - - - -
24/10:30pm 21.5 N 6 8 1010.3 - 0.0 - Partly cloudy 10 - - - -
24/10:00pm 21.4 NNE 6 8 1010.6 - 0.0 - Partly cloudy 10 - - - -
24/09:30pm 21.2 NNW 6 8 1010.9 - 0.0 - Cloudy 10 - - - -
24/09:00pm 20.6 W 2 4 1011.0 - 0.0 - Partly cloudy 10 - - - -
24/08:30pm 21.0 N 7 10 1010.6 - 0.0 - - 10 - - - -
24/08:00pm 21.0 N 10 13 1010.3 - 0.0 - Partly cloudy 10 - - - -
24/07:30pm 20.9 N 9 12 1010.1 - 0.0 - Partly cloudy 10 - - - -
24/07:00pm 20.9 N 10 11 1009.8 - 0.0 - - 10 - - - -
24/06:30pm 21.2 N 10 13 1009.3 - 0.0 - - 10 - - - -
24/06:00pm 21.7 N 11 14 1008.9 - 0.0 - - 10 - - - -
24/05:30pm 22.2 N 14 18 1008.5 - 0.0 - - 10 - - - -
24/05:00pm 23.1 N 14 20 1008.2 - 0.0 - - 10 - - - -
24/04:30pm 24.2 N 14 20 1008.1 - 0.0 - - 10 - - - -
24/04:00pm 24.8 N 15 18 1007.9 - 0.0 - - 10 - - - -
24/03:30pm 25.7 N 13 17 1007.9 - 0.0 - - 10 - - - -
24/03:00pm 25.6 N 14 17 1008.3 - 0.0 - - 10 - - - -
24/02:30pm 26.5 NNE 13 18 1008.6 - 0.0 - - 10 - - - -
24/02:00pm 27.3 NNE 10 15 1009.0 - 0.0 - - 10 - - - -
24/01:30pm 26.6 N 8 12 1009.5 - 0.0 - - 10 - - - -
24/01:00pm 26.6 N 10 13 1010.1 - 0.0 - - 10 - - - -
24/12:30pm 26.7 N 9 13 1010.6 - 0.0 - - 10 - - - -
24/12:00pm 26.1 NW 5 9 1011.2 - 0.0 - - 10 - - - -
24/11:30am 25.4 NNW 8 14 1011.9 - 0.0 - - 10 - - - -
24/11:00am 25.6 NW 7 13 1012.4 - 0.0 - - 10 - - - -
24/10:30am 24.7 NW 6 9 1013.0 - 0.0 - - 10 - - - -
24/10:00am 23.7 NNW 7 10 1013.4 - 0.0 - - 10 - - - -
24/09:30am 22.9 WNW 3 6 1013.7 - 0.0 - - 10 - - - -
24/09:00am 21.9 W 3 6 1014.0 - 0.0 - - 10 - - - -
24/08:30am 20.9 SW 5 7 1014.2 - 0.0 - - 10 - - - -
24/08:00am 19.2 SW 6 8 1014.1 - 0.0 - - 10 - - - -
24/07:30am 17.0 SSW 6 9 1013.9 - 0.0 - - 10 - - - -
24/07:00am 15.2 SW 6 8 1013.6 - 0.0 - - 10 - - - -

Other Formats:

Comma delimited format used in spreadsheet applications
http://www.bom.gov.au/fwo/IDQ60701/IDQ60701.94387.axf

JavaScript Object Notation format (JSON) in row-major order
http://www.bom.gov.au/fwo/IDQ60701/IDQ60701.94387.json